South Carver, Massachusetts
Current Conditions -  °F | °C
As of 12:52 PM on Thursday 30 Oct 2014 (Local Time) from KPYM Reporting Station
Clear Clear  
Wind Chill: 59°   Ceiling: Unl
Heat Index: 59°   Visibility: 10mi
Dew Point: 40°   Wind: 6mph
Humidity: 49%   Direction: 310°NW
Pressure: 29.91"   Gusts: NA
Location:  41.84°N, 70.75°W
Report Text: KPYM 301652Z AUTO 31005KT 10SM CLR 15/04 A2991 RMK AO2 SLP128 T01500044
Loading
Personal Weather Stations






























Interactive Weather Map
Tropical Storm Tracking
New forecast layout! Learn more

10-Day Weather Forecast

Advertisements
Track Severe Weather on mobile